Time;durP1;ratioP1;P1;durP2;ratioP2;P2;SDS_P1;SDS_P2;PMS_P1;PMS_P2;Temp;Humidity;BMP_temperature;BMP_pressure;BME280_temperature;BME280_humidity;BME280_pressure;Samples;Min_cycle;Max_cycle;Signal;HPM_P1;HPM_P2
2022/03/27 00:02:08;;;;;;;50.90;23.57;;;;;;;13.86;26.56;96021.44;4933383;29;20448;-55
2022/03/27 00:04:35;;;;;;;51.73;26.57;;;;;;;13.59;27.46;96023.28;4932701;29;20437;-57
2022/03/27 00:07:02;;;;;;;56.57;25.47;;;;;;;13.55;27.76;96019.53;4933526;29;20512;-59
2022/03/27 00:09:29;;;;;;;53.67;23.73;;;;;;;13.69;27.06;96015.47;4932765;29;20460;-56
2022/03/27 00:11:56;;;;;;;43.53;23.77;;;;;;;13.49;27.64;96015.25;4933116;29;20464;-59
2022/03/27 00:14:23;;;;;;;47.23;24.03;;;;;;;12.93;28.70;96030.31;4932600;29;21308;-57
2022/03/27 00:16:50;;;;;;;55.30;25.47;;;;;;;13.07;28.27;96025.50;4933601;29;20506;-58
2022/03/27 00:19:17;;;;;;;51.07;25.20;;;;;;;13.16;28.01;96027.47;4932526;29;20451;-61
2022/03/27 00:21:44;;;;;;;53.97;24.30;;;;;;;12.28;29.04;96028.50;4933352;29;20455;-54
2022/03/27 00:24:11;;;;;;;44.77;23.13;;;;;;;12.47;29.10;96020.16;4932672;29;20444;-55
2022/03/27 00:26:40;;;;;;;44.83;22.97;;;;;;;12.77;28.43;96020.59;4933465;29;20455;-58
2022/03/27 00:29:08;;;;;;;42.23;22.60;;;;;;;12.66;28.89;96016.25;4932611;29;20971;-59
2022/03/27 00:31:38;;;;;;;50.60;22.87;;;;;;;12.86;28.49;96010.47;4933003;29;20444;-59
2022/03/27 00:34:05;;;;;;;43.40;21.90;;;;;;;12.81;28.52;96002.50;4932631;29;20547;-58
2022/03/27 00:36:32;;;;;;;41.00;19.63;;;;;;;12.62;29.03;96017.75;4932810;29;20921;-57
2022/03/27 00:39:00;;;;;;;39.50;18.83;;;;;;;12.47;29.06;96007.00;4932690;29;20452;-58
2022/03/27 00:41:27;;;;;;;39.63;20.37;;;;;;;12.58;28.92;96007.94;4932424;29;20437;-60
2022/03/27 00:43:54;;;;;;;41.57;19.77;;;;;;;12.78;28.27;96005.59;4932613;29;20451;-60
2022/03/27 00:46:21;;;;;;;35.67;17.83;;;;;;;12.54;28.80;95997.09;4932203;29;20445;-62
2022/03/27 00:48:48;;;;;;;37.53;18.63;;;;;;;12.36;28.95;95988.66;4932488;29;20552;-58
2022/03/27 00:51:15;;;;;;;34.50;17.17;;;;;;;12.60;28.94;96004.03;4931795;29;20852;-59
2022/03/27 00:53:42;;;;;;;32.50;17.07;;;;;;;12.37;28.76;95991.06;4932125;29;20441;-60
2022/03/27 00:56:09;;;;;;;35.80;18.00;;;;;;;12.36;28.50;95989.47;4931943;29;21053;-56
2022/03/27 00:58:36;;;;;;;36.20;17.53;;;;;;;12.00;29.33;95995.19;4932091;29;20511;-56
2022/03/27 01:01:18;;;;;;;32.73;18.27;;;;;;;12.19;29.53;95999.97;4931964;29;20440;-59
2022/03/27 01:03:47;;;;;;;39.07;17.67;;;;;;;12.33;28.84;95989.97;4932175;29;20453;-58
2022/03/27 01:06:29;;;;;;;33.33;17.73;;;;;;;12.22;29.06;95988.97;4931885;29;21152;-59
2022/03/27 01:11:42;;;;;;;40.10;19.07;;;;;;;12.20;29.23;95985.03;4932074;29;20440;-59
2022/03/27 01:14:09;;;;;;;46.87;20.07;;;;;;;12.09;29.28;95988.50;4931724;29;20440;-56
2022/03/27 01:16:44;;;;;;;41.00;18.57;;;;;;;12.32;29.00;95979.69;4932181;29;20484;-58
2022/03/27 01:19:12;;;;;;;35.20;17.97;;;;;;;12.18;29.05;95984.47;4931625;29;20821;-61
2022/03/27 01:21:44;;;;;;;43.27;19.33;;;;;;;12.23;28.89;95980.09;4932605;29;20460;-57
2022/03/27 01:24:13;;;;;;;44.17;18.40;;;;;;;12.02;29.60;95987.88;4931942;29;20874;-57
2022/03/27 01:26:40;;;;;;;42.40;19.47;;;;;;;12.06;29.56;95995.03;4932223;29;20507;-59
2022/03/27 01:29:07;;;;;;;41.53;19.57;;;;;;;11.97;29.63;95972.03;4931428;29;20453;-59
2022/03/27 01:31:35;;;;;;;35.43;18.77;;;;;;;12.18;29.89;95994.97;4931898;29;20460;-58
2022/03/27 01:34:04;;;;;;;39.30;19.77;;;;;;;12.08;29.72;95981.66;4931615;29;20877;-59
2022/03/27 01:36:35;;;;;;;44.77;19.03;;;;;;;11.74;29.90;95993.94;4931338;29;20476;-61
2022/03/27 01:39:08;;;;;;;45.10;19.23;;;;;;;11.86;29.73;95989.44;4931259;29;20480;-58
2022/03/27 01:41:37;;;;;;;43.40;20.50;;;;;;;11.73;30.28;95988.94;4931925;29;20460;-60
2022/03/27 01:44:06;;;;;;;36.57;19.73;;;;;;;11.79;30.24;95993.22;4931698;29;21022;-60
2022/03/27 01:46:35;;;;;;;37.40;20.27;;;;;;;11.86;29.95;95988.66;4931697;29;20451;-60
2022/03/27 01:49:04;;;;;;;38.50;18.97;;;;;;;11.82;29.95;95987.53;4930973;29;20456;-61
2022/03/27 01:51:31;;;;;;;43.70;20.13;;;;;;;11.84;30.06;95990.72;4931845;29;20451;-60
2022/03/27 01:53:59;;;;;;;37.57;17.80;;;;;;;11.87;29.87;95984.97;4931645;29;20456;-59
2022/03/27 01:56:26;;;;;;;32.10;15.23;;;;;;;11.69;30.78;95979.94;4931840;29;20476;-59
2022/03/27 01:58:53;;;;;;;40.37;16.33;;;;;;;11.59;31.27;95982.34;4931577;29;20467;-56
2022/03/27 02:01:20;;;;;;;41.60;17.90;;;;;;;10.12;33.33;95985.50;4931327;29;20452;-63
2022/03/27 02:03:49;;;;;;;30.13;16.93;;;;;;;11.07;31.64;95986.84;4935399;29;20509;-58
2022/03/27 02:06:17;;;;;;;37.87;18.60;;;;;;;10.84;31.72;95992.13;4935344;29;20499;-58
2022/03/27 02:08:44;;;;;;;40.47;19.07;;;;;;;11.00;31.58;95986.97;4935268;29;20452;-60
2022/03/27 02:11:14;;;;;;;31.20;17.50;;;;;;;10.70;32.02;95996.00;4935272;29;20506;-53
2022/03/27 02:13:41;;;;;;;36.77;18.07;;;;;;;10.41;32.94;95995.09;4935628;29;20455;-64
2022/03/27 02:16:08;;;;;;;41.53;17.37;;;;;;;10.43;32.90;96002.75;4934791;29;20487;-55
2022/03/27 02:18:35;;;;;;;42.20;17.35;;;;;;;10.43;32.84;95997.50;4935462;29;20460;-60
2022/03/27 02:21:03;;;;;;;31.30;17.07;;;;;;;11.16;32.02;95994.13;4934775;29;20592;-56
2022/03/27 02:23:30;;;;;;;31.83;16.33;;;;;;;10.90;32.02;95989.38;4935130;29;20459;-55
2022/03/27 02:25:57;;;;;;;35.67;15.80;;;;;;;10.77;32.29;95973.91;4934653;29;20527;-60
2022/03/27 02:28:24;;;;;;;32.27;15.37;;;;;;;9.33;35.00;95991.03;4935259;29;20789;-62
2022/03/27 02:30:51;;;;;;;37.70;16.13;;;;;;;10.10;33.61;95998.03;4934612;29;21014;-62
2022/03/27 02:33:18;;;;;;;38.20;16.60;;;;;;;10.75;32.65;95991.69;4935054;29;20448;-61
2022/03/27 02:35:45;;;;;;;34.63;15.83;;;;;;;10.25;33.05;96001.03;4934769;29;20448;-62
2022/03/27 02:38:12;;;;;;;34.83;15.80;;;;;;;10.81;32.35;96000.44;4934869;29;20542;-57
2022/03/27 02:40:42;;;;;;;35.60;15.43;;;;;;;10.78;32.41;96004.34;4934905;29;20831;-57
2022/03/27 02:43:09;;;;;;;29.65;16.02;;;;;;;10.99;32.04;96006.38;4934736;29;20448;-61
2022/03/27 02:45:37;;;;;;;46.47;16.17;;;;;;;10.79;32.82;96010.38;4934081;29;20212;-59
2022/03/27 02:48:05;;;;;;;33.30;15.25;;;;;;;11.00;32.14;96010.56;4935173;29;20444;-57
2022/03/27 02:50:32;;;;;;;32.37;15.13;;;;;;;10.52;33.43;96017.91;4934798;29;20316;-57
2022/03/27 02:52:59;;;;;;;35.30;14.55;;;;;;;10.20;33.41;96019.22;4934866;29;20479;-62
2022/03/27 02:55:26;;;;;;;39.43;16.00;;;;;;;10.03;33.81;96019.06;4934159;29;20193;-59
2022/03/27 02:57:54;;;;;;;31.87;14.73;;;;;;;10.68;32.89;96017.22;4934683;29;20834;-59
2022/03/27 03:00:22;;;;;;;28.47;14.43;;;;;;;10.74;32.99;96011.06;4934274;29;20833;-51
2022/03/27 03:02:49;;;;;;;30.50;15.10;;;;;;;10.55;33.18;96017.44;4934370;29;20437;-57
2022/03/27 03:05:17;;;;;;;30.00;14.00;;;;;;;10.76;32.93;96021.31;4934295;29;20871;-59
2022/03/27 03:07:44;;;;;;;29.48;14.68;;;;;;;10.95;33.12;96018.34;4934412;29;20448;-60
2022/03/27 03:10:14;;;;;;;30.60;14.33;;;;;;;10.86;33.43;96014.47;4934252;29;20208;-60
2022/03/27 03:12:41;;;;;;;31.33;13.97;;;;;;;10.12;34.28;96022.19;4934315;29;20828;-62
2022/03/27 03:15:09;;;;;;;35.50;14.07;;;;;;;10.24;34.24;96020.38;4934169;29;20452;-57
2022/03/27 03:17:36;;;;;;;23.33;12.87;;;;;;;10.64;33.12;96010.81;4934164;29;21039;-58
2022/03/27 03:20:04;;;;;;;32.13;13.33;;;;;;;10.52;34.08;96028.38;4933314;29;20495;-59
2022/03/27 03:22:31;;;;;;;30.20;13.90;;;;;;;10.80;32.75;96025.88;4933627;29;21220;-58
2022/03/27 03:24:58;;;;;;;28.80;14.37;;;;;;;10.03;34.79;96026.91;4931768;29;20568;-56
2022/03/27 03:27:25;;;;;;;25.57;12.83;;;;;;;10.51;33.30;96032.00;4934277;29;20445;-60
2022/03/27 03:29:52;;;;;;;24.60;13.30;;;;;;;10.32;34.92;96021.88;4933757;29;20590;-52
2022/03/27 03:32:23;;;;;;;31.07;13.70;;;;;;;10.46;33.90;96023.22;4934373;29;20484;-56
2022/03/27 03:34:51;;;;;;;29.75;13.50;;;;;;;10.74;33.94;96026.81;4933404;29;21034;-61
2022/03/27 03:37:18;;;;;;;31.55;12.75;;;;;;;10.59;34.08;96021.22;4934179;29;20271;-60
2022/03/27 03:39:46;;;;;;;42.43;13.60;;;;;;;10.65;33.87;96022.94;4933324;29;20590;-64
2022/03/27 03:42:14;;;;;;;30.20;12.77;;;;;;;10.58;33.30;96026.69;4933683;29;20460;-59
2022/03/27 03:44:42;;;;;;;28.37;13.17;;;;;;;10.72;33.46;96023.59;4933197;29;20235;-59
2022/03/27 03:47:10;;;;;;;29.67;13.00;;;;;;;10.79;33.46;96032.16;4933676;29;20444;-60
2022/03/27 03:49:38;;;;;;;26.40;13.67;;;;;;;10.86;33.11;96024.97;4933015;29;20483;-57
2022/03/27 03:52:06;;;;;;;33.87;13.57;;;;;;;10.18;34.81;96026.53;4933731;29;20452;-55
2022/03/27 03:54:35;;;;;;;32.27;13.67;;;;;;;10.19;34.77;96028.09;4932851;29;20488;-56
2022/03/27 03:57:04;;;;;;;35.67;14.20;;;;;;;9.94;35.30;96025.66;4933701;29;20487;-60
2022/03/27 03:59:36;;;;;;;27.40;14.60;;;;;;;9.20;36.66;96039.06;4932332;29;20200;-61
2022/03/27 04:02:08;;;;;;;26.60;13.60;;;;;;;9.87;35.51;96026.75;4933191;29;20476;-61
2022/03/27 04:04:35;;;;;;;31.70;14.80;;;;;;;10.38;34.93;96032.25;4932887;29;20440;-60
2022/03/27 04:07:04;;;;;;;26.23;14.33;;;;;;;10.43;34.55;96045.47;4933693;29;20444;-63
2022/03/27 04:09:31;;;;;;;41.83;15.07;;;;;;;10.31;34.66;96041.25;4932800;29;20936;-62
2022/03/27 04:11:58;;;;;;;33.38;16.35;;;;;;;10.23;35.02;96039.75;4933539;29;20452;-52
2022/03/27 04:14:25;;;;;;;40.73;19.83;;;;;;;10.36;34.81;96050.03;4934762;29;20241;-56
2022/03/27 04:16:52;;;;;;;46.17;24.00;;;;;;;10.40;34.01;96051.13;4934270;29;20883;-57
2022/03/27 04:19:19;;;;;;;57.38;27.15;;;;;;;10.45;34.74;96053.91;4932847;29;20432;-59
2022/03/27 04:21:46;;;;;;;64.27;30.53;;;;;;;10.06;34.79;96038.75;4933269;29;20650;-58
2022/03/27 04:24:13;;;;;;;68.28;32.90;;;;;;;10.23;34.86;96065.13;4932023;29;20459;-53
2022/03/27 04:26:40;;;;;;;78.83;36.80;;;;;;;10.08;35.17;96073.38;4932752;29;20716;-55
2022/03/27 04:29:10;;;;;;;92.00;46.13;;;;;;;10.19;34.90;96073.44;4931321;29;20436;-61
2022/03/27 04:31:39;;;;;;;94.80;47.47;;;;;;;10.45;34.37;96064.38;4932782;29;20476;-55
2022/03/27 04:34:06;;;;;;;88.72;45.17;;;;;;;10.30;34.24;96071.06;4932076;29;20193;-58
2022/03/27 04:36:33;;;;;;;84.93;42.17;;;;;;;10.26;34.35;96068.09;4932876;29;21055;-56
2022/03/27 04:39:01;;;;;;;80.65;41.75;;;;;;;10.23;34.56;96076.41;4931268;29;20448;-59
2022/03/27 04:41:28;;;;;;;75.80;40.63;;;;;;;9.98;35.13;96080.97;4932384;29;20204;-59
2022/03/27 04:43:55;;;;;;;69.70;40.10;;;;;;;10.05;34.63;96079.06;4932105;29;20448;-62
2022/03/27 04:46:21;;;;;;;65.35;37.53;;;;;;;9.91;34.72;96085.47;4931652;29;20476;-60
2022/03/27 04:48:48;;;;;;;63.78;36.40;;;;;;;9.92;35.28;96101.00;4932185;29;20216;-55
2022/03/27 04:51:16;;;;;;;59.53;35.70;;;;;;;10.21;34.35;96094.16;4931326;29;20224;-59
2022/03/27 04:53:43;;;;;;;70.00;37.45;;;;;;;9.80;35.36;96094.09;4932404;29;20676;-54
2022/03/27 04:56:10;;;;;;;69.38;39.35;;;;;;;9.85;34.73;96099.47;4932069;29;20240;-62
2022/03/27 04:58:37;;;;;;;67.80;37.95;;;;;;;9.63;35.39;96096.53;4933178;29;20215;-58
2022/03/27 05:01:04;;;;;;;77.80;38.38;;;;;;;9.66;35.37;96105.75;4932410;29;20251;-60
2022/03/27 05:03:31;;;;;;;80.75;43.17;;;;;;;9.65;35.50;96089.22;4932491;29;20199;-55
2022/03/27 05:05:59;;;;;;;79.97;44.83;;;;;;;9.94;35.37;96113.84;4931822;29;20415;-56
2022/03/27 05:08:26;;;;;;;91.03;47.03;;;;;;;10.00;35.16;96097.25;4932103;29;20211;-55
2022/03/27 05:10:54;;;;;;;82.38;46.10;;;;;;;10.18;34.10;96110.34;4931159;29;20197;-62
2022/03/27 05:13:20;;;;;;;76.47;44.92;;;;;;;10.19;34.80;96102.25;4930757;29;20688;-62
2022/03/27 05:15:48;;;;;;;78.57;44.55;;;;;;;10.38;34.03;96116.09;4930560;29;20201;-61
2022/03/27 05:18:15;;;;;;;84.18;44.80;;;;;;;10.31;34.32;96109.34;4931252;29;20235;-63
2022/03/27 05:20:43;;;;;;;84.03;46.43;;;;;;;10.41;34.68;96120.88;4929773;29;20219;-56
2022/03/27 05:23:09;;;;;;;83.53;46.13;;;;;;;10.16;34.50;96117.63;4930990;29;20448;-54
2022/03/27 05:25:41;;;;;;;85.75;44.85;;;;;;;10.45;34.20;96108.94;4930479;29;20201;-54
2022/03/27 05:28:09;;;;;;;75.60;43.25;;;;;;;10.55;34.02;96117.03;4932196;29;20219;-60
2022/03/27 05:30:37;;;;;;;76.17;38.93;;;;;;;10.60;33.94;96119.00;4931305;29;20200;-55
2022/03/27 05:33:05;;;;;;;68.43;37.20;;;;;;;10.82;33.61;96123.44;4932074;29;20465;-59
2022/03/27 05:35:33;;;;;;;66.53;35.87;;;;;;;10.88;33.19;96117.31;4931299;29;20459;-56
2022/03/27 05:38:04;;;;;;;73.68;35.92;;;;;;;10.89;33.44;96123.34;4931718;29;20523;-57
2022/03/27 05:40:31;;;;;;;61.93;33.70;;;;;;;11.04;33.61;96123.69;4931372;29;20256;-58
2022/03/27 05:42:58;;;;;;;72.73;37.13;;;;;;;11.01;33.70;96124.97;4931520;29;20882;-60
2022/03/27 05:45:25;;;;;;;69.30;37.13;;;;;;;10.89;33.42;96126.75;4929280;29;21081;-59
2022/03/27 05:47:53;;;;;;;66.50;37.63;;;;;;;10.90;34.45;96125.75;4929976;29;20850;-59
2022/03/27 05:50:22;;;;;;;65.67;35.97;;;;;;;11.10;33.14;96110.47;4930493;29;20987;-57
2022/03/27 05:52:51;;;;;;;69.47;36.33;;;;;;;11.50;32.90;96125.47;4931232;29;20805;-63
2022/03/27 05:55:19;;;;;;;54.83;32.90;;;;;;;11.72;32.61;96123.88;4931184;29;20448;-60
2022/03/27 05:57:46;;;;;;;64.10;32.23;;;;;;;12.00;32.77;96126.53;4931305;29;20484;-58
2022/03/27 06:00:20;;;;;;;53.77;29.83;;;;;;;12.06;32.59;96129.00;4930384;29;20535;-57
2022/03/27 06:02:49;;;;;;;58.70;30.80;;;;;;;12.07;32.52;96121.94;4931611;29;20456;-58
2022/03/27 06:05:22;;;;;;;67.63;33.40;;;;;;;12.36;33.25;96115.63;4931452;29;20499;-60
2022/03/27 06:07:57;;;;;;;64.87;39.43;;;;;;;12.34;33.58;96125.59;4931649;29;20452;-62
2022/03/27 06:10:27;;;;;;;82.03;55.37;;;;;;;11.83;33.29;96129.09;4930469;29;20511;-58
2022/03/27 06:12:54;;;;;;;76.90;52.27;;;;;;;12.15;32.85;96129.47;4931429;29;20448;-62
2022/03/27 06:15:21;;;;;;;76.97;46.17;;;;;;;12.35;32.90;96129.03;4930464;29;20975;-58
2022/03/27 06:17:50;;;;;;;58.10;34.73;;;;;;;12.48;32.94;96126.88;4914269;29;20567;-59
2022/03/27 06:20:25;;;;;;;49.40;30.87;;;;;;;12.45;32.97;96135.25;4930405;29;20793;-60
2022/03/27 06:22:53;;;;;;;51.40;29.93;;;;;;;12.81;32.85;96140.06;4931225;29;20444;-60
2022/03/27 06:25:22;;;;;;;37.37;20.67;;;;;;;12.93;32.92;96132.91;4930969;29;20531;-58
2022/03/27 06:27:49;;;;;;;40.23;22.20;;;;;;;12.75;32.07;96127.88;4930882;29;20455;-58
2022/03/27 06:30:18;;;;;;;43.23;23.70;;;;;;;13.03;32.17;96133.09;4930011;29;20459;-60
2022/03/27 06:32:46;;;;;;;42.37;24.33;;;;;;;13.14;31.88;96124.31;4931711;29;20456;-59
2022/03/27 06:35:15;;;;;;;41.40;24.40;;;;;;;13.34;31.52;96120.38;4930626;29;21065;-58
2022/03/27 06:37:42;;;;;;;45.20;23.67;;;;;;;12.94;32.18;96123.97;4931556;29;20849;-57
2022/03/27 06:40:12;;;;;;;50.60;25.07;;;;;;;13.17;31.91;96123.03;4930422;29;20440;-57
2022/03/27 06:42:42;;;;;;;43.37;24.57;;;;;;;13.33;31.76;96140.63;4931377;29;20544;-57
2022/03/27 06:45:14;;;;;;;44.07;23.73;;;;;;;13.43;31.48;96124.19;4930687;29;20555;-60
2022/03/27 06:47:44;;;;;;;40.37;22.53;;;;;;;13.38;31.01;96124.91;4931987;29;20468;-58
2022/03/27 06:50:13;;;;;;;46.43;23.87;;;;;;;13.71;30.63;96124.00;4934248;29;20474;-61
2022/03/27 06:52:41;;;;;;;46.83;24.10;;;;;;;13.95;30.37;96120.91;4917596;29;20838;-62
2022/03/27 06:55:11;;;;;;;41.27;23.17;;;;;;;13.97;30.42;96128.56;4933935;29;20583;-58
2022/03/27 06:57:38;;;;;;;39.40;20.93;;;;;;;13.92;30.58;96134.56;4934696;29;21033;-60
2022/03/27 07:03:02;;;;;;;47.70;19.40;;;;;;;14.07;29.98;96123.38;4934527;29;20520;-60
2022/03/27 07:05:40;;;;;;;37.87;19.67;;;;;;;14.27;30.52;96131.53;4934127;29;20794;-63
2022/03/27 07:08:11;;;;;;;36.87;19.80;;;;;;;14.18;29.85;96125.09;4934135;29;20454;-57
2022/03/27 07:10:40;;;;;;;34.03;19.33;;;;;;;13.86;29.40;96121.56;4933724;29;20463;-61
2022/03/27 07:13:09;;;;;;;40.97;19.30;;;;;;;14.38;29.81;96125.34;4933796;29;20460;-57
2022/03/27 07:15:37;;;;;;;37.47;18.67;;;;;;;14.62;29.04;96131.91;4933923;29;20508;-58
2022/03/27 07:18:05;;;;;;;31.73;18.40;;;;;;;14.94;28.23;96130.06;4934097;29;20487;-61
2022/03/27 07:20:34;;;;;;;28.03;17.23;;;;;;;15.37;35.66;96118.47;4933400;29;20452;-61
2022/03/27 07:23:03;;;;;;;32.40;17.50;;;;;;;15.43;28.86;96124.63;4933882;29;20883;-64
2022/03/27 07:25:34;;;;;;;33.90;17.47;;;;;;;15.83;28.74;96116.91;4933332;29;20445;-66
2022/03/27 07:28:02;;;;;;;34.20;17.40;;;;;;;15.69;31.33;96126.34;4933776;29;20440;-59
2022/03/27 07:30:30;;;;;;;30.43;18.60;;;;;;;15.99;29.07;96115.91;4933511;29;20439;-63
2022/03/27 07:32:57;;;;;;;47.77;25.60;;;;;;;16.50;28.16;96112.34;4934374;29;20773;-57
2022/03/27 07:35:26;;;;;;;52.43;34.47;;;;;;;16.50;27.16;96104.41;4933480;29;20444;-60
2022/03/27 07:37:53;;;;;;;71.70;59.87;;;;;;;16.06;28.11;96105.88;4933459;29;20484;-57
2022/03/27 07:40:21;;;;;;;1844.50;999.90;;;;;;;15.92;27.75;96099.47;4932790;29;20452;-59
2022/03/27 07:42:53;;;;;;;321.50;230.37;;;;;;;16.40;27.58;96101.75;4932650;29;20803;-59
2022/03/27 07:45:24;;;;;;;346.50;248.37;;;;;;;16.84;27.81;96100.19;4933333;29;20452;-70
2022/03/27 07:47:53;;;;;;;1929.13;998.60;;;;;;;16.61;27.27;96102.56;4933857;29;20455;-59
2022/03/27 07:50:21;;;;;;;579.57;338.50;;;;;;;17.23;27.49;96095.94;4932936;29;20468;-60
2022/03/27 07:52:49;;;;;;;1583.77;720.47;;;;;;;17.57;26.60;96096.16;4933758;29;20524;-60
2022/03/27 07:55:20;;;;;;;121.03;58.27;;;;;;;17.74;25.91;96090.53;4932291;29;20484;-58
2022/03/27 07:57:54;;;;;;;55.43;25.63;;;;;;;17.97;26.20;96084.63;4932791;29;20522;-60
2022/03/27 08:00:21;;;;;;;1999.90;999.90;;;;;;;17.97;27.39;96084.63;4931235;29;20503;-56
2022/03/27 08:02:48;;;;;;;1538.67;927.07;;;;;;;18.19;26.37;96087.69;4933265;29;20445;-58
2022/03/27 08:05:16;;;;;;;994.33;689.30;;;;;;;18.53;25.06;96083.25;4932900;29;20948;-59
2022/03/27 08:07:45;;;;;;;298.27;131.50;;;;;;;18.54;24.46;96078.75;4933667;29;20835;-60
2022/03/27 08:10:14;;;;;;;39.40;21.10;;;;;;;18.95;24.58;96074.69;4932181;29;20480;-62
2022/03/27 08:12:41;;;;;;;25.73;14.97;;;;;;;19.13;24.23;96058.84;4933407;29;20460;-60
2022/03/27 08:15:08;;;;;;;28.23;14.90;;;;;;;18.88;23.72;96069.72;4932852;29;20449;-57
2022/03/27 08:17:36;;;;;;;27.20;14.97;;;;;;;19.38;24.75;96073.00;4933601;29;20487;-56
2022/03/27 08:20:04;;;;;;;24.43;13.83;;;;;;;19.75;23.60;96059.78;4932873;29;20441;-59
2022/03/27 08:22:33;;;;;;;20.77;13.27;;;;;;;20.15;23.40;96056.63;4933493;29;20544;-57
2022/03/27 08:25:00;;;;;;;23.60;12.93;;;;;;;19.68;22.38;96057.50;4932985;29;21033;-58
2022/03/27 08:27:27;;;;;;;29.10;18.00;;;;;;;19.70;23.93;96049.22;4933711;29;20436;-62
2022/03/27 08:29:54;;;;;;;50.93;35.43;;;;;;;19.92;22.38;96049.47;4932398;29;20449;-58
2022/03/27 08:32:21;;;;;;;27.77;17.23;;;;;;;19.53;22.52;96043.56;4933462;29;20459;-57
2022/03/27 08:34:48;;;;;;;22.77;11.97;;;;;;;19.76;21.84;96043.53;4932832;29;20449;-60
2022/03/27 08:37:18;;;;;;;25.70;12.00;;;;;;;19.36;21.39;96048.56;4932584;29;20522;-61
2022/03/27 08:39:45;;;;;;;22.03;12.27;;;;;;;19.90;20.88;96038.34;4932073;29;20994;-59
2022/03/27 08:42:14;;;;;;;24.37;14.33;;;;;;;19.44;21.70;96042.59;4932989;29;21050;-64
2022/03/27 08:44:41;;;;;;;25.87;14.17;;;;;;;19.62;20.23;96036.53;4932764;29;21208;-60
2022/03/27 08:47:30;;;;;;;31.00;18.77;;;;;;;20.38;20.72;96031.84;4932816;29;20436;-61
2022/03/27 08:50:32;;;;;;;46.10;23.40;;;;;;;20.99;24.26;96029.81;4932423;29;20452;-62
2022/03/27 08:53:04;;;;;;;42.97;23.93;;;;;;;20.56;22.31;96033.69;4933057;29;20982;-63
2022/03/27 08:55:50;;;;;;;32.23;19.63;;;;;;;20.41;20.75;96025.13;4932211;29;21092;-60
2022/03/27 08:58:19;;;;;;;22.87;14.93;;;;;;;20.54;20.51;96027.06;4933110;29;20488;-60
2022/03/27 09:00:46;;;;;;;23.13;12.93;;;;;;;20.14;20.26;96028.44;4931273;29;20445;-53
2022/03/27 09:03:13;;;;;;;28.77;14.90;;;;;;;19.76;20.20;96027.59;4931626;29;20895;-58
2022/03/27 09:05:40;;;;;;;24.80;12.80;;;;;;;19.49;20.75;96016.00;4931203;29;20462;-61
2022/03/27 09:08:09;;;;;;;25.37;13.37;;;;;;;19.30;20.27;96031.03;4932162;29;20548;-59
2022/03/27 09:10:39;;;;;;;26.33;15.00;;;;;;;19.60;20.45;96038.69;4931357;29;20491;-55
2022/03/27 09:13:11;;;;;;;24.97;13.83;;;;;;;19.76;19.95;96018.84;4932247;29;20449;-61
2022/03/27 09:15:38;;;;;;;29.03;14.67;;;;;;;19.84;20.20;96028.81;4930695;29;20536;-59
2022/03/27 09:18:08;;;;;;;29.97;14.93;;;;;;;19.82;19.75;96015.00;4931213;29;20472;-58
2022/03/27 09:20:46;;;;;;;22.83;13.73;;;;;;;20.37;19.56;96022.25;4930165;29;21227;-62
2022/03/27 09:23:21;;;;;;;25.60;14.83;;;;;;;20.35;19.12;96013.78;4931956;29;20456;-56
2022/03/27 09:25:48;;;;;;;32.40;15.13;;;;;;;20.69;18.93;96024.94;4931222;29;20819;-58
2022/03/27 09:28:22;;;;;;;26.10;14.30;;;;;;;20.48;19.18;96018.38;4932276;29;20433;-56
2022/03/27 09:30:49;;;;;;;25.60;14.53;;;;;;;20.16;19.17;96012.97;4931370;29;20455;-61
2022/03/27 09:33:46;;;;;;;28.47;13.73;;;;;;;20.78;19.05;96009.09;4932466;29;20879;-52
2022/03/27 09:36:25;;;;;;;20.30;12.40;;;;;;;19.97;19.10;96007.63;4930890;29;20490;-58
2022/03/27 09:39:09;;;;;;;27.73;14.37;;;;;;;20.93;18.54;96004.28;4931801;29;20488;-59
2022/03/27 09:41:46;;;;;;;28.03;14.77;;;;;;;21.21;18.62;96009.69;4931647;29;20436;-57
2022/03/27 09:44:29;;;;;;;26.03;14.77;;;;;;;20.56;18.32;95999.06;4931580;29;20452;-61
2022/03/27 09:47:04;;;;;;;26.13;13.97;;;;;;;20.85;18.42;95991.66;4932150;29;20542;-59
2022/03/27 09:49:31;;;;;;;24.07;14.53;;;;;;;21.64;18.39;95986.97;4930807;29;20500;-56
2022/03/27 09:52:08;;;;;;;50.27;30.33;;;;;;;22.08;18.20;95976.44;4931478;29;20834;-59
2022/03/27 09:54:50;;;;;;;30.30;15.00;;;;;;;21.60;18.30;95992.13;4931439;29;20436;-59
2022/03/27 09:57:23;;;;;;;30.87;18.60;;;;;;;21.52;20.61;95989.34;4932141;29;20192;-60
2022/03/27 09:59:51;;;;;;;28.43;14.00;;;;;;;21.77;18.40;95988.84;4930783;29;20243;-62
2022/03/27 10:02:26;;;;;;;26.80;14.70;;;;;;;22.14;17.33;95983.25;4931816;29;20275;-55
2022/03/27 10:05:04;;;;;;;25.63;13.90;;;;;;;21.83;17.37;95985.00;4913778;29;20860;-53
2022/03/27 10:07:40;;;;;;;25.37;14.07;;;;;;;21.98;16.73;95960.66;4934008;29;20291;-57
2022/03/27 10:10:12;;;;;;;23.63;13.47;;;;;;;21.83;16.99;95975.13;4930885;29;20235;-54
2022/03/27 10:12:41;;;;;;;22.50;13.33;;;;;;;23.00;17.04;95966.72;4931235;29;20299;-59
2022/03/27 10:15:14;;;;;;;21.23;12.70;;;;;;;23.17;16.18;95951.84;4927912;29;20200;-59
2022/03/27 10:17:46;;;;;;;29.20;13.10;;;;;;;23.01;16.26;95952.25;4931402;29;20201;-58
2022/03/27 10:20:15;;;;;;;17.50;11.83;;;;;;;23.24;16.00;95955.66;4930771;29;20601;-68
2022/03/27 10:22:47;;;;;;;25.70;11.73;;;;;;;22.29;16.38;95945.50;4932330;29;20224;-64
2022/03/27 10:25:17;;;;;;;45.33;29.87;;;;;;;22.17;16.29;95947.91;4934709;29;20212;-68
2022/03/27 10:27:46;;;;;;;49.00;36.33;;;;;;;22.89;16.13;95948.56;4935857;29;20285;-57
2022/03/27 10:30:15;;;;;;;20.23;11.70;;;;;;;23.45;16.46;95937.19;4934249;29;20201;-63
2022/03/27 10:32:43;;;;;;;25.43;11.40;;;;;;;23.74;15.30;95948.09;4934151;29;20260;-55
2022/03/27 10:35:24;;;;;;;21.93;11.70;;;;;;;22.38;15.37;95943.69;4934341;29;20607;-61
2022/03/27 10:37:53;;;;;;;20.33;10.53;;;;;;;22.74;15.47;95936.41;4934348;29;20237;-62
2022/03/27 10:40:26;;;;;;;19.70;10.93;;;;;;;22.86;15.95;95925.91;4934753;29;20256;-53
2022/03/27 10:43:16;;;;;;;26.03;11.07;;;;;;;23.29;15.62;95946.69;4934896;29;20247;-58
2022/03/27 10:45:43;;;;;;;21.13;10.30;;;;;;;22.96;15.74;95939.03;4934781;29;20208;-57
2022/03/27 10:48:16;;;;;;;21.53;12.30;;;;;;;23.76;15.97;95924.47;4935199;29;20197;-64
2022/03/27 10:50:54;;;;;;;24.67;15.97;;;;;;;24.16;15.81;95938.56;4934213;29;20181;-57
2022/03/27 10:53:26;;;;;;;22.27;10.97;;;;;;;23.79;14.36;95923.88;4933894;29;20638;-59
2022/03/27 10:55:58;;;;;;;18.83;9.23;;;;;;;22.26;14.72;95932.78;4933656;29;20264;-63
2022/03/27 10:58:38;;;;;;;18.57;10.80;;;;;;;23.14;15.71;95924.63;4931420;29;20227;-66
2022/03/27 11:01:09;;;;;;;15.10;10.47;;;;;;;23.58;14.78;95926.34;4933401;29;20224;-57
2022/03/27 11:03:43;;;;;;;20.17;11.63;;;;;;;23.56;14.50;95914.38;4933823;29;20212;-62
2022/03/27 11:06:20;;;;;;;19.47;10.40;;;;;;;24.07;14.67;95915.22;4933487;29;20235;-56
2022/03/27 11:08:48;;;;;;;16.40;10.10;;;;;;;24.30;14.56;95923.09;4934908;29;20216;-66
2022/03/27 11:11:38;;;;;;;24.03;10.77;;;;;;;24.46;15.06;95921.50;4933801;29;20201;-62
2022/03/27 11:14:07;;;;;;;15.10;10.27;;;;;;;23.82;14.20;95902.59;4927160;29;20200;-59
2022/03/27 11:16:54;;;;;;;20.90;10.60;;;;;;;24.00;14.49;95903.38;4933434;29;20620;-56
2022/03/27 11:19:45;;;;;;;15.10;10.50;;;;;;;23.92;14.24;95902.28;4930315;29;20342;-67
2022/03/27 11:22:43;;;;;;;18.37;9.67;;;;;;;23.65;14.01;95907.16;4932724;29;20197;-57
2022/03/27 11:25:34;;;;;;;14.47;8.40;;;;;;;23.10;14.21;95906.84;4931419;29;20210;-55
2022/03/27 11:28:06;;;;;;;16.60;8.97;;;;;;;23.31;14.11;95907.09;4930712;29;20228;-65
2022/03/27 11:30:47;;;;;;;29.17;20.83;;;;;;;23.78;16.27;95896.31;4933044;29;20204;-63
2022/03/27 11:33:21;;;;;;;55.03;40.80;;;;;;;23.75;14.06;95893.47;4931081;29;20684;-69
2022/03/27 11:36:08;;;;;;;21.77;11.67;;;;;;;23.68;13.91;95885.91;4933107;29;20200;-60